createdAt,value
2022-09-12T00:01:20.729Z,56.66
2022-09-12T00:23:06.406Z,65.79
2022-09-12T00:44:54.411Z,57.50
2022-09-12T01:06:42.593Z,63.80
2022-09-12T01:29:04.513Z,55.43
2022-09-12T01:50:57.539Z,66.00
2022-09-12T02:12:50.586Z,53.66
2022-09-12T02:34:49.509Z,64.77
2022-09-12T02:56:35.213Z,53.36
2022-09-12T03:18:34.229Z,63.24
2022-09-12T03:40:20.422Z,59.12
2022-09-12T04:02:06.343Z,67.17
2022-09-12T04:23:52.288Z,54.32
2022-09-12T04:45:38.032Z,65.37
2022-09-12T05:07:23.776Z,55.76
2022-09-12T05:29:09.426Z,65.14
2022-09-12T05:51:00.101Z,55.91
2022-09-12T06:12:46.102Z,64.64
2022-09-12T06:34:32.040Z,53.93
2022-09-12T06:56:20.133Z,61.56
2022-09-12T07:18:06.202Z,58.08
2022-09-12T07:39:51.919Z,62.02
2022-09-12T08:01:39.460Z,53.64
2022-09-12T08:23:25.619Z,48.17
2022-09-12T08:45:19.694Z,36.62
2022-09-12T09:07:38.312Z,34.56
2022-09-12T09:29:29.120Z,31.69
2022-09-12T09:51:17.644Z,38.87
2022-09-12T10:13:28.646Z,37.69
2022-09-12T10:35:23.052Z,37.56
2022-09-12T10:57:28.185Z,33.97
2022-09-12T11:19:28.205Z,28.21
2022-09-12T11:41:21.436Z,27.28
2022-09-12T12:03:16.107Z,23.73
2022-09-12T12:25:29.604Z,27.68
2022-09-12T12:47:23.394Z,34.32
2022-09-12T13:09:19.339Z,36.42
2022-09-12T13:31:17.162Z,38.50
2022-09-12T13:53:07.130Z,41.63
2022-09-12T14:14:52.020Z,42.96
2022-09-12T14:36:41.283Z,42.75
2022-09-12T14:58:29.369Z,44.10
2022-09-12T15:20:15.889Z,45.17
2022-09-12T15:42:01.610Z,46.47
2022-09-12T16:03:48.821Z,47.80
2022-09-12T16:25:34.630Z,49.43
2022-09-12T16:47:20.556Z,51.74
2022-09-12T17:09:07.150Z,54.99
2022-09-12T17:30:59.602Z,67.18
2022-09-12T17:52:46.683Z,50.49
2022-09-12T18:14:33.002Z,54.34
2022-09-12T18:36:20.531Z,66.89
2022-09-12T18:58:06.931Z,52.61
2022-09-12T19:19:52.989Z,63.61
2022-09-12T19:41:39.099Z,53.22
2022-09-12T20:03:25.117Z,66.02
2022-09-12T20:25:11.822Z,53.11
2022-09-12T20:46:57.967Z,66.06
2022-09-12T21:08:44.232Z,52.49
2022-09-12T21:30:30.084Z,65.75
2022-09-12T21:52:15.765Z,52.69
2022-09-12T22:14:01.709Z,64.81
2022-09-12T22:35:47.609Z,52.93
2022-09-12T22:57:33.244Z,64.44
2022-09-12T23:19:19.033Z,63.10
2022-09-12T23:41:05.515Z,52.78
